createdAt,value
2019-02-05T00:00:55.327Z,16.77
2019-02-05T00:03:23.717Z,14.80
2019-02-05T00:05:52.743Z,17.30
2019-02-05T00:08:21.221Z,14.93
2019-02-05T00:10:50.068Z,14.03
2019-02-05T00:13:18.494Z,17.00
2019-02-05T00:15:48.021Z,14.80
2019-02-05T00:18:16.529Z,15.37
2019-02-05T00:20:45.694Z,15.17
2019-02-05T00:23:14.156Z,16.90
2019-02-05T00:25:42.563Z,14.30
2019-02-05T00:28:11.301Z,15.27
2019-02-05T00:30:39.770Z,15.80
2019-02-05T00:33:08.178Z,15.37
2019-02-05T00:35:36.576Z,14.77
2019-02-05T00:38:05.304Z,15.03
2019-02-05T00:40:33.707Z,14.37
2019-02-05T00:43:02.790Z,18.70
2019-02-05T00:45:31.204Z,15.03
2019-02-05T00:47:59.596Z,16.90
2019-02-05T00:50:28.026Z,15.33
2019-02-05T00:52:56.702Z,15.70
2019-02-05T00:55:25.093Z,14.93
2019-02-05T00:57:53.490Z,14.17
2019-02-05T01:00:28.214Z,15.30
2019-02-05T01:02:56.770Z,18.00
2019-02-05T01:05:25.806Z,14.07
2019-02-05T01:07:54.597Z,17.73
2019-02-05T01:10:24.133Z,14.90
2019-02-05T01:12:53.246Z,15.30
2019-02-05T01:15:24.192Z,14.70
2019-02-05T01:17:52.741Z,14.30
2019-02-05T01:20:22.505Z,17.40
2019-02-05T01:22:51.838Z,14.27
2019-02-05T01:25:21.374Z,17.83
2019-02-05T01:27:50.850Z,14.67
2019-02-05T01:30:27.094Z,19.23
2019-02-05T01:32:55.899Z,18.07
2019-02-05T01:35:24.721Z,17.00
2019-02-05T01:37:53.461Z,18.40
2019-02-05T01:40:24.018Z,17.43
2019-02-05T01:42:52.781Z,18.23
2019-02-05T01:45:22.917Z,19.40
2019-02-05T01:47:51.683Z,18.60
2019-02-05T01:50:22.985Z,18.10
2019-02-05T01:52:51.467Z,17.93
2019-02-05T01:55:20.349Z,20.43
2019-02-05T01:57:48.762Z,19.53
2019-02-05T02:00:19.500Z,22.03
2019-02-05T02:02:47.994Z,24.10
2019-02-05T02:05:16.721Z,21.97
2019-02-05T02:07:45.206Z,20.07
2019-02-05T02:10:19.934Z,19.07
2019-02-05T02:12:48.330Z,18.03
2019-02-05T02:15:17.172Z,20.17
2019-02-05T02:17:45.741Z,24.73
2019-02-05T02:20:16.381Z,20.77
2019-02-05T02:22:45.420Z,21.23
2019-02-05T02:25:14.533Z,17.67
2019-02-05T02:27:43.088Z,20.10
2019-02-05T02:30:23.455Z,21.70
2019-02-05T02:32:51.858Z,20.67
2019-02-05T02:35:20.262Z,26.03
2019-02-05T02:37:48.735Z,22.30
2019-02-05T02:40:17.219Z,19.27
2019-02-05T02:42:45.641Z,23.03
2019-02-05T02:45:15.075Z,23.90
2019-02-05T02:47:43.484Z,22.53
2019-02-05T02:50:14.715Z,25.63
2019-02-05T02:52:43.182Z,20.27
2019-02-05T02:55:11.735Z,20.63
2019-02-05T02:57:40.206Z,24.53
2019-02-05T03:00:15.110Z,27.83
2019-02-05T03:02:43.579Z,25.47
2019-02-05T03:05:14.006Z,23.97
2019-02-05T03:07:42.424Z,28.43
2019-02-05T03:10:19.377Z,28.83
2019-02-05T03:12:47.783Z,27.03
2019-02-05T03:15:16.811Z,25.37
2019-02-05T03:17:45.290Z,28.07
2019-02-05T03:20:15.637Z,29.50
2019-02-05T03:22:45.337Z,27.67
2019-02-05T03:25:19.800Z,29.97
2019-02-05T03:27:48.470Z,26.83
2019-02-05T03:30:18.920Z,24.83
2019-02-05T03:32:47.446Z,26.57
2019-02-05T03:35:16.901Z,26.07
2019-02-05T03:37:45.367Z,24.70
2019-02-05T03:40:28.691Z,22.60
2019-02-05T03:42:57.224Z,25.50
2019-02-05T03:45:27.765Z,23.53
2019-02-05T03:47:59.246Z,23.47
2019-02-05T03:50:28.694Z,25.40
2019-02-05T03:53:05.320Z,25.43
2019-02-05T03:55:48.830Z,24.23
2019-02-05T03:58:26.433Z,22.77
2019-02-05T04:01:13.065Z,26.63
2019-02-05T04:04:05.034Z,25.73
2019-02-05T04:06:42.630Z,25.37
2019-02-05T04:09:23.357Z,23.80
2019-02-05T04:12:03.475Z,24.67
2019-02-05T04:14:41.020Z,28.57
2019-02-05T04:17:12.881Z,25.30
2019-02-05T04:20:17.914Z,26.07
2019-02-05T04:23:04.438Z,25.30
2019-02-05T04:25:55.684Z,24.10
2019-02-05T04:28:29.742Z,23.77
2019-02-05T04:31:22.613Z,25.03
2019-02-05T04:34:06.006Z,28.63
2019-02-05T04:36:46.050Z,23.13
2019-02-05T04:39:43.331Z,25.07
2019-02-05T04:42:17.771Z,24.70
2019-02-05T04:45:04.727Z,27.30
2019-02-05T04:47:48.230Z,25.60
2019-02-05T04:50:22.701Z,27.67
2019-02-05T04:53:00.121Z,28.20
2019-02-05T04:55:37.526Z,29.37
2019-02-05T04:58:17.533Z,31.73
2019-02-05T05:00:57.762Z,32.00
2019-02-05T05:03:58.124Z,28.70
2019-02-05T05:06:46.153Z,29.10
2019-02-05T05:09:26.597Z,32.80
2019-02-05T05:11:54.989Z,33.53
2019-02-05T05:14:23.391Z,34.30
2019-02-05T05:16:51.806Z,32.90
2019-02-05T05:19:20.479Z,28.77
2019-02-05T05:21:49.164Z,29.73
2019-02-05T05:24:17.921Z,27.97
2019-02-05T05:26:46.486Z,32.73
2019-02-05T05:29:15.251Z,35.43
2019-02-05T05:31:44.369Z,30.47
2019-02-05T05:34:12.767Z,32.87
2019-02-05T05:36:48.374Z,27.30
2019-02-05T05:39:17.118Z,32.30
2019-02-05T05:41:45.841Z,31.90
2019-02-05T05:44:14.321Z,27.93
2019-02-05T05:46:42.726Z,28.37
2019-02-05T05:49:11.140Z,34.23
2019-02-05T05:51:39.825Z,29.43
2019-02-05T05:54:08.230Z,30.00
2019-02-05T05:56:36.634Z,33.63
2019-02-05T05:59:05.189Z,32.87
2019-02-05T06:01:36.525Z,31.17
2019-02-05T06:04:05.817Z,34.10
2019-02-05T06:06:34.229Z,32.37
2019-02-05T06:09:04.458Z,29.97
2019-02-05T06:11:32.921Z,28.53
2019-02-05T06:14:20.667Z,31.53
2019-02-05T06:16:49.082Z,31.13
2019-02-05T06:19:17.501Z,29.47
2019-02-05T06:21:46.150Z,31.43
2019-02-05T06:24:14.572Z,30.97
2019-02-05T06:26:42.970Z,34.13
2019-02-05T06:29:11.391Z,33.10
2019-02-05T06:31:39.865Z,33.30
2019-02-05T06:34:08.277Z,31.23
2019-02-05T06:36:36.702Z,31.07
2019-02-05T06:39:07.514Z,30.47
2019-02-05T06:41:36.392Z,32.43
2019-02-05T06:44:05.227Z,33.30
2019-02-05T06:46:33.714Z,30.70
2019-02-05T06:49:02.177Z,28.43
2019-02-05T06:51:30.606Z,30.77
2019-02-05T06:53:59.394Z,26.30
2019-02-05T06:56:27.798Z,31.87
2019-02-05T06:58:56.215Z,31.20
2019-02-05T07:01:24.635Z,34.00
2019-02-05T07:03:53.030Z,28.87
2019-02-05T07:06:21.434Z,32.70
2019-02-05T07:08:49.915Z,37.27
2019-02-05T07:11:18.703Z,37.97
2019-02-05T07:13:47.147Z,30.47
2019-02-05T07:16:15.584Z,32.20
2019-02-05T07:18:44.015Z,34.00
2019-02-05T07:21:12.778Z,36.47
2019-02-05T07:23:41.233Z,32.10
2019-02-05T07:26:09.927Z,34.40
2019-02-05T07:28:38.679Z,32.57
2019-02-05T07:31:07.189Z,28.83
2019-02-05T07:33:35.594Z,37.70
2019-02-05T07:36:04.459Z,44.47
2019-02-05T07:38:32.869Z,42.90
2019-02-05T07:41:01.276Z,37.63
2019-02-05T07:43:29.754Z,38.93
2019-02-05T07:45:58.424Z,35.97
2019-02-05T07:48:30.332Z,39.17
2019-02-05T07:50:57.339Z,35.30
2019-02-05T07:53:25.810Z,41.60
2019-02-05T07:55:54.214Z,35.73
2019-02-05T07:58:22.654Z,42.20
2019-02-05T08:00:51.060Z,31.67
2019-02-05T08:03:19.450Z,35.00
2019-02-05T08:05:48.126Z,31.97
2019-02-05T08:08:16.546Z,33.57
2019-02-05T08:10:45.186Z,34.40
2019-02-05T08:13:32.943Z,33.30
2019-02-05T08:16:01.342Z,36.67
2019-02-05T08:18:49.112Z,35.70
2019-02-05T08:21:17.513Z,35.63
2019-02-05T08:23:45.918Z,36.87
2019-02-05T08:26:14.327Z,36.10
2019-02-05T08:28:42.739Z,38.03
2019-02-05T08:31:11.138Z,32.93
2019-02-05T08:33:39.538Z,36.07
2019-02-05T08:36:08.035Z,32.33
2019-02-05T08:38:36.436Z,31.03
2019-02-05T08:41:05.027Z,30.63
2019-02-05T08:43:33.594Z,33.00
2019-02-05T08:46:01.989Z,29.17
2019-02-05T08:48:30.394Z,31.20
2019-02-05T08:50:58.858Z,29.00
2019-02-05T08:53:27.651Z,27.53
2019-02-05T08:55:56.054Z,24.80
2019-02-05T08:58:31.081Z,26.87
2019-02-05T09:00:54.590Z,30.67
2019-02-05T09:03:23.278Z,34.13
2019-02-05T09:05:51.750Z,31.93
2019-02-05T09:08:20.142Z,24.27
2019-02-05T09:10:48.555Z,24.20
2019-02-05T09:13:16.942Z,24.57
2019-02-05T09:15:45.359Z,19.33
2019-02-05T09:18:13.755Z,19.27
2019-02-05T09:20:42.146Z,24.60
2019-02-05T09:23:10.831Z,23.07
2019-02-05T09:25:39.294Z,26.03
2019-02-05T09:28:07.689Z,20.80
2019-02-05T09:30:36.912Z,24.63
2019-02-05T09:33:14.049Z,24.67
2019-02-05T09:35:42.458Z,25.13
2019-02-05T09:38:10.853Z,26.00
2019-02-05T09:40:39.262Z,24.53
2019-02-05T09:43:07.746Z,25.03
2019-02-05T09:45:36.481Z,21.47
2019-02-05T09:48:05.015Z,22.77
2019-02-05T09:50:44.240Z,28.77
2019-02-05T09:53:03.548Z,22.77
2019-02-05T09:55:32.313Z,21.53
2019-02-05T09:58:20.066Z,22.50
2019-02-05T10:00:48.457Z,21.57
2019-02-05T10:03:17.114Z,21.13
2019-02-05T10:05:45.618Z,20.60
2019-02-05T10:08:14.094Z,18.73
2019-02-05T10:10:42.490Z,20.93
2019-02-05T10:13:10.899Z,19.23
2019-02-05T10:15:41.884Z,24.53
2019-02-05T10:18:12.534Z,21.70
2019-02-05T10:20:41.285Z,19.37
2019-02-05T10:23:10.250Z,16.00
2019-02-05T10:25:39.081Z,18.43
2019-02-05T10:28:07.955Z,18.77
2019-02-05T10:30:41.408Z,17.77
2019-02-05T10:33:09.938Z,19.17
2019-02-05T10:35:38.486Z,18.50
2019-02-05T10:38:07.024Z,18.00
2019-02-05T10:40:36.166Z,20.10
2019-02-05T10:43:05.415Z,20.80
2019-02-05T10:45:33.953Z,20.23
2019-02-05T10:48:02.618Z,19.27
2019-02-05T10:50:31.026Z,19.60
2019-02-05T10:52:59.439Z,18.73
2019-02-05T10:55:27.899Z,21.30
2019-02-05T10:57:56.726Z,17.23
2019-02-05T11:00:32.738Z,17.77
2019-02-05T11:03:03.451Z,17.97
2019-02-05T11:05:32.583Z,18.60
2019-02-05T11:08:01.058Z,16.63
2019-02-05T11:10:29.519Z,19.57
2019-02-05T11:12:58.213Z,16.33
2019-02-05T11:15:29.218Z,20.90
2019-02-05T11:17:57.695Z,16.20
2019-02-05T11:20:27.909Z,14.67
2019-02-05T11:23:15.650Z,15.43
2019-02-05T11:25:44.041Z,8.50
2019-02-05T11:28:12.446Z,11.47
2019-02-05T11:30:43.070Z,10.43
2019-02-05T11:33:11.980Z,9.20
2019-02-05T11:35:40.454Z,9.87
2019-02-05T11:38:09.482Z,10.50
2019-02-05T11:40:40.110Z,9.57
2019-02-05T11:43:08.595Z,10.07
2019-02-05T11:45:37.046Z,11.23
2019-02-05T11:48:08.527Z,11.23
2019-02-05T11:50:37.262Z,11.80
2019-02-05T11:53:05.798Z,13.73
2019-02-05T11:55:35.038Z,11.57
2019-02-05T11:58:03.898Z,11.87
2019-02-05T12:00:40.171Z,10.87
2019-02-05T12:03:09.903Z,9.50
2019-02-05T12:05:38.565Z,12.67
2019-02-05T12:08:07.123Z,9.50
2019-02-05T12:10:35.589Z,10.13
2019-02-05T12:13:04.117Z,11.73
2019-02-05T12:15:32.611Z,11.83
2019-02-05T12:18:01.076Z,11.33
2019-02-05T12:20:29.542Z,12.47
2019-02-05T12:22:58.508Z,12.80
2019-02-05T12:25:28.062Z,15.70
2019-02-05T12:27:56.454Z,14.67
2019-02-05T12:30:27.195Z,12.07
2019-02-05T12:32:55.987Z,10.90
2019-02-05T12:35:24.454Z,15.23
2019-02-05T12:37:52.915Z,11.53
2019-02-05T12:40:21.703Z,8.73
2019-02-05T12:42:50.261Z,11.20
2019-02-05T12:45:30.007Z,8.07
2019-02-05T12:47:58.576Z,9.87
2019-02-05T12:50:31.866Z,12.73
2019-02-05T12:53:00.386Z,9.83
2019-02-05T12:55:28.864Z,10.47
2019-02-05T12:57:57.896Z,11.27
2019-02-05T13:00:29.086Z,11.93
2019-02-05T13:02:57.495Z,12.93
2019-02-05T13:05:26.189Z,12.80
2019-02-05T13:07:54.721Z,11.97
2019-02-05T13:10:28.962Z,13.67
2019-02-05T13:12:57.497Z,13.47
2019-02-05T13:15:25.898Z,16.43
2019-02-05T13:17:54.434Z,16.07
2019-02-05T13:20:30.614Z,17.37
2019-02-05T13:23:00.363Z,18.23
2019-02-05T13:25:30.862Z,18.83
2019-02-05T13:27:59.502Z,18.20
2019-02-05T13:30:30.530Z,19.27
2019-02-05T13:32:58.994Z,16.53
2019-02-05T13:35:28.797Z,18.03
2019-02-05T13:37:57.331Z,15.60
2019-02-05T13:40:28.098Z,13.87
2019-02-05T13:42:57.066Z,18.13
2019-02-05T13:45:31.092Z,16.53
2019-02-05T13:47:59.548Z,14.37
2019-02-05T13:50:33.789Z,13.83
2019-02-05T13:53:02.439Z,13.33
2019-02-05T13:55:33.555Z,12.83
2019-02-05T13:58:02.347Z,13.63
2019-02-05T14:00:39.553Z,11.50
2019-02-05T14:03:09.360Z,13.70
2019-02-05T14:05:38.102Z,10.57
2019-02-05T14:08:06.865Z,11.73
2019-02-05T14:10:37.603Z,12.03
2019-02-05T14:13:06.326Z,10.50
2019-02-05T14:15:36.971Z,12.77
2019-02-05T14:18:06.497Z,11.33
2019-02-05T14:20:34.954Z,11.63
2019-02-05T14:23:03.434Z,13.07
2019-02-05T14:25:31.902Z,12.03
2019-02-05T14:28:00.286Z,12.47
2019-02-05T14:30:42.870Z,12.83
2019-02-05T14:33:11.265Z,11.73
2019-02-05T14:35:39.958Z,12.00
2019-02-05T14:38:08.721Z,14.67
2019-02-05T14:40:37.186Z,15.43
2019-02-05T14:43:06.118Z,13.93
2019-02-05T14:45:34.659Z,13.87
2019-02-05T14:48:03.594Z,15.97
2019-02-05T14:50:34.641Z,15.93
2019-02-05T14:53:03.830Z,14.70
2019-02-05T14:55:32.222Z,13.20
2019-02-05T14:58:00.634Z,16.57
2019-02-05T15:00:36.063Z,15.17
2019-02-05T15:03:07.487Z,13.20
2019-02-05T15:05:35.874Z,15.03
2019-02-05T15:08:05.955Z,15.27
2019-02-05T15:10:34.775Z,14.57
2019-02-05T15:13:22.515Z,16.63
2019-02-05T15:15:50.902Z,16.63
2019-02-05T15:18:19.441Z,15.60
2019-02-05T15:20:48.529Z,17.13
2019-02-05T15:23:16.914Z,19.57
2019-02-05T15:25:45.322Z,17.10
2019-02-05T15:28:13.710Z,17.50
2019-02-05T15:30:43.537Z,16.30
2019-02-05T15:33:17.650Z,16.83
2019-02-05T15:35:54.085Z,16.40
2019-02-05T15:38:22.516Z,18.73
2019-02-05T15:40:50.918Z,21.00
2019-02-05T15:43:19.693Z,19.57
2019-02-05T15:45:48.089Z,19.40
2019-02-05T15:48:16.489Z,16.97
2019-02-05T15:50:44.882Z,19.83
2019-02-05T15:53:13.277Z,16.70
2019-02-05T15:55:42.146Z,16.33
2019-02-05T15:58:10.589Z,17.47
2019-02-05T16:00:38.981Z,15.43
2019-02-05T16:03:08.034Z,17.97
2019-02-05T16:05:36.694Z,19.60
2019-02-05T16:08:05.742Z,19.43
2019-02-05T16:10:34.135Z,18.63
2019-02-05T16:13:03.248Z,21.83
2019-02-05T16:15:31.682Z,15.17
2019-02-05T16:18:00.215Z,20.70
2019-02-05T16:20:29.049Z,16.37
2019-02-05T16:22:57.450Z,19.47
2019-02-05T16:25:25.846Z,18.93
2019-02-05T16:27:54.513Z,15.10
2019-02-05T16:30:25.992Z,20.20
2019-02-05T16:32:54.377Z,19.03
2019-02-05T16:35:22.881Z,19.80
2019-02-05T16:37:53.499Z,15.60
2019-02-05T16:40:26.962Z,17.07
2019-02-05T16:42:57.076Z,16.87
2019-02-05T16:45:27.878Z,17.60
2019-02-05T16:47:56.447Z,16.03
2019-02-05T16:50:30.841Z,17.30
2019-02-05T16:52:59.233Z,15.20
2019-02-05T16:55:28.125Z,18.70
2019-02-05T16:57:56.513Z,16.37
2019-02-05T17:00:30.541Z,16.73
2019-02-05T17:03:18.298Z,14.97
2019-02-05T17:05:46.690Z,15.40
2019-02-05T17:08:15.124Z,20.07
2019-02-05T17:10:43.574Z,19.13
2019-02-05T17:13:12.252Z,20.30
2019-02-05T17:15:40.753Z,19.17
2019-02-05T17:18:10.134Z,18.43
2019-02-05T17:20:38.670Z,21.67
2019-02-05T17:23:07.337Z,20.53
2019-02-05T17:25:36.244Z,20.90
2019-02-05T17:28:06.543Z,19.20
2019-02-05T17:30:37.662Z,17.23
2019-02-05T17:33:06.851Z,17.73
2019-02-05T17:35:35.997Z,18.90
2019-02-05T17:38:06.932Z,21.53
2019-02-05T17:40:36.224Z,22.43
2019-02-05T17:43:05.617Z,20.07
2019-02-05T17:45:36.887Z,24.30
2019-02-05T17:48:11.078Z,25.27
2019-02-05T17:50:58.821Z,21.77
2019-02-05T17:53:27.242Z,25.40
2019-02-05T17:55:55.661Z,28.13
2019-02-05T17:58:24.059Z,33.77
2019-02-05T18:00:54.114Z,31.77
2019-02-05T18:03:22.793Z,32.47
2019-02-05T18:05:51.188Z,33.33
2019-02-05T18:08:19.618Z,33.00
2019-02-05T18:10:48.022Z,36.10
2019-02-05T18:13:16.422Z,36.00
2019-02-05T18:15:44.916Z,35.50
2019-02-05T18:18:13.387Z,36.83
2019-02-05T18:20:41.786Z,37.70
2019-02-05T18:23:14.375Z,29.63
2019-02-05T18:25:42.947Z,31.17
2019-02-05T18:28:11.341Z,32.17
2019-02-05T18:30:40.298Z,29.33
2019-02-05T18:33:08.866Z,34.00
2019-02-05T18:35:37.262Z,39.73
2019-02-05T18:38:14.066Z,40.47
2019-02-05T18:40:42.477Z,34.77
2019-02-05T18:43:11.383Z,32.87
2019-02-05T18:45:39.782Z,30.47
2019-02-05T18:48:08.606Z,31.37
2019-02-05T18:50:37.013Z,33.50
2019-02-05T18:53:05.484Z,35.87
2019-02-05T18:55:36.696Z,37.13
2019-02-05T18:58:09.284Z,29.70
2019-02-05T19:00:41.790Z,35.87
2019-02-05T19:03:15.572Z,36.90
2019-02-05T19:05:40.626Z,38.33
2019-02-05T19:08:09.700Z,29.10
2019-02-05T19:10:38.340Z,33.47
2019-02-05T19:13:06.800Z,35.30
2019-02-05T19:15:37.379Z,35.57
2019-02-05T19:18:07.227Z,34.50
2019-02-05T19:20:35.716Z,41.60
2019-02-05T19:23:06.246Z,37.40
2019-02-05T19:25:36.368Z,36.97
2019-02-05T19:28:05.421Z,37.60
2019-02-05T19:30:35.471Z,37.83
2019-02-05T19:33:04.407Z,34.13
2019-02-05T19:35:32.890Z,33.23
2019-02-05T19:38:01.288Z,35.07
2019-02-05T19:40:29.694Z,41.37
2019-02-05T19:42:58.111Z,34.93
2019-02-05T19:45:34.177Z,33.87
2019-02-05T19:48:04.281Z,35.40
2019-02-05T19:50:32.722Z,37.23
2019-02-05T19:53:01.153Z,31.07
2019-02-05T19:55:29.559Z,35.17
2019-02-05T19:57:58.342Z,34.77
2019-02-05T20:00:26.790Z,35.80
2019-02-05T20:02:55.652Z,36.17
2019-02-05T20:05:24.165Z,36.57
2019-02-05T20:07:52.886Z,36.90
2019-02-05T20:10:21.319Z,36.43
2019-02-05T20:12:49.709Z,40.17
2019-02-05T20:15:19.754Z,33.83
2019-02-05T20:17:48.520Z,35.67
2019-02-05T20:20:21.509Z,34.00
2019-02-05T20:22:50.286Z,34.57
2019-02-05T20:25:19.689Z,41.27
2019-02-05T20:27:48.163Z,44.50
2019-02-05T20:30:22.748Z,37.43
2019-02-05T20:32:51.296Z,41.57
2019-02-05T20:35:19.700Z,44.30
2019-02-05T20:37:48.960Z,41.43
2019-02-05T20:40:22.658Z,38.87
2019-02-05T20:42:51.123Z,40.97
2019-02-05T20:45:19.742Z,41.03
2019-02-05T20:47:48.166Z,37.37
2019-02-05T20:50:18.786Z,34.07
2019-02-05T20:52:47.686Z,44.97
2019-02-05T20:55:21.689Z,35.47
2019-02-05T20:57:50.634Z,38.80
2019-02-05T21:00:24.318Z,45.33
2019-02-05T21:02:52.862Z,38.00
2019-02-05T21:05:21.548Z,42.17
2019-02-05T21:07:50.284Z,38.13
2019-02-05T21:10:21.413Z,31.33
2019-02-05T21:12:49.991Z,37.23
2019-02-05T21:15:18.641Z,38.27
2019-02-05T21:17:47.057Z,31.30
2019-02-05T21:20:28.951Z,40.90
2019-02-05T21:22:48.686Z,33.13
2019-02-05T21:25:19.402Z,37.70
2019-02-05T21:27:47.938Z,36.17
2019-02-05T21:30:21.491Z,35.53
2019-02-05T21:32:50.190Z,29.00
2019-02-05T21:35:18.656Z,26.47
2019-02-05T21:37:47.066Z,27.20
2019-02-05T21:40:20.921Z,30.03
2019-02-05T21:42:49.674Z,31.70
2019-02-05T21:45:20.687Z,34.03
2019-02-05T21:47:49.326Z,25.73
2019-02-05T21:50:24.253Z,24.57
2019-02-05T21:52:53.013Z,22.83
2019-02-05T21:55:27.847Z,20.23
2019-02-05T21:57:56.697Z,23.20
2019-02-05T22:00:35.997Z,21.73
2019-02-05T22:03:06.199Z,20.33
2019-02-05T22:05:34.694Z,21.20
2019-02-05T22:10:34.279Z,22.53
2019-02-05T22:13:02.701Z,21.93
2019-02-05T22:15:31.488Z,25.87
2019-02-05T22:17:59.907Z,28.60
2019-02-05T22:20:29.422Z,26.23
2019-02-05T22:22:58.080Z,28.17
2019-02-05T22:25:30.955Z,28.93
2019-02-05T22:27:59.642Z,30.80
2019-02-05T22:30:38.299Z,36.67
2019-02-05T22:33:08.038Z,31.13
2019-02-05T22:35:36.438Z,29.13
2019-02-05T22:38:05.554Z,35.50
2019-02-05T22:40:34.033Z,39.70
2019-02-05T22:43:02.870Z,31.43
2019-02-05T22:45:50.614Z,32.33
2019-02-05T22:48:19.011Z,30.97
2019-02-05T22:50:47.411Z,28.80
2019-02-05T22:53:16.029Z,28.47
2019-02-05T22:55:44.436Z,31.80
2019-02-05T22:58:12.969Z,37.53
2019-02-05T23:01:03.870Z,31.77
2019-02-05T23:03:37.946Z,30.07
2019-02-05T23:06:38.435Z,30.67
2019-02-05T23:09:25.282Z,22.07
2019-02-05T23:12:08.707Z,33.37
2019-02-05T23:14:37.105Z,32.50
2019-02-05T23:17:06.019Z,27.33
2019-02-05T23:19:34.574Z,21.70
2019-02-05T23:22:03.066Z,29.13
2019-02-05T23:24:31.479Z,27.53
2019-02-05T23:27:00.350Z,27.77
2019-02-05T23:29:28.829Z,24.43
2019-02-05T23:31:57.488Z,24.60
2019-02-05T23:34:26.134Z,34.60
2019-02-05T23:36:54.792Z,27.33
2019-02-05T23:39:23.337Z,22.57
2019-02-05T23:41:52.343Z,24.87
2019-02-05T23:44:21.002Z,26.10
2019-02-05T23:46:49.540Z,23.13
2019-02-05T23:49:18.310Z,26.47
2019-02-05T23:51:47.311Z,23.73
2019-02-05T23:54:15.951Z,23.57
2019-02-05T23:56:45.109Z,25.10
2019-02-05T23:59:14.185Z,21.27
